Time,TemperatureF,DewpointF,PressureIn,WindDirection,WindDirectionDegrees,WindSpeedMPH,WindSpeedGustMPH,Humidity,HourlyPrecipIn,Conditions,Clouds,dailyrainin,SoftwareType,DateUTC
2013-08-16 00:00:00,61.0,56.1,30.12,North,0,0.0,0.0,84,0.00,,OVC,0.00,VWS V14.01,2013-08-16 04:00:00,
2013-08-16 01:00:00,60.7,56.2,30.11,North,0,0.0,0.0,85,0.00,,OVC,0.00,VWS V14.01,2013-08-16 05:00:00,
2013-08-16 02:00:00,60.3,56.4,30.10,North,0,0.0,0.0,87,0.00,,OVC,0.00,VWS V14.01,2013-08-16 06:00:00,
2013-08-16 03:00:00,59.8,56.2,30.08,North,0,0.0,0.0,88,0.00,,OVC,0.00,VWS V14.01,2013-08-16 07:00:00,
2013-08-16 04:00:00,59.5,56.3,30.08,North,0,0.0,0.0,89,0.00,,OVC,0.00,VWS V14.01,2013-08-16 08:00:00,
2013-08-16 05:00:00,59.1,54.6,30.08,North,0,0.0,0.0,85,0.00,,OVC,0.00,VWS V14.01,2013-08-16 09:00:00,
2013-08-16 06:00:00,59.1,55.5,30.10,North,0,0.0,0.0,88,0.00,,OVC,0.00,VWS V14.01,2013-08-16 10:00:00,
2013-08-16 07:00:00,58.9,55.0,30.10,North,0,0.0,0.0,87,0.00,,OVC,0.00,VWS V14.01,2013-08-16 11:00:00,
2013-08-16 08:00:00,58.6,55.4,30.12,North,0,0.0,0.0,89,0.00,,OVC,0.00,VWS V14.01,2013-08-16 12:00:00,
2013-08-16 09:00:00,58.9,55.4,30.12,North,0,0.0,0.0,88,0.00,,OVC,0.00,VWS V14.01,2013-08-16 13:00:00,
2013-08-16 10:00:00,58.9,55.0,30.13,North,0,0.0,0.0,87,0.00,,OVC,0.00,VWS V14.01,2013-08-16 14:00:00,
2013-08-16 11:00:00,59.9,55.4,30.14,North,0,0.0,0.0,85,0.00,,OVC,0.00,VWS V14.01,2013-08-16 15:00:00,
2013-08-16 12:00:00,60.4,55.9,30.13,North,0,0.0,0.0,85,0.00,,OVC,0.00,VWS V14.01,2013-08-16 16:00:00,
2013-08-16 13:00:00,61.2,57.0,30.14,North,0,0.0,0.0,86,0.00,,OVC,0.00,VWS V14.01,2013-08-16 17:00:00,
2013-08-16 14:00:00,62.8,58.2,30.12,North,0,0.0,0.0,85,0.00,,OVC,0.00,VWS V14.01,2013-08-16 18:00:00,
2013-08-16 15:00:00,65.5,60.2,30.11,North,0,0.0,0.0,83,0.01,,OVC,0.01,VWS V14.01,2013-08-16 19:00:00,
2013-08-16 16:00:00,65.3,59.7,30.10,North,0,0.0,0.0,82,0.01,,OVC,0.01,VWS V14.01,2013-08-16 20:00:00,
2013-08-16 17:00:00,68.1,60.3,30.09,North,0,0.0,0.0,76,0.01,,OVC,0.02,VWS V14.01,2013-08-16 21:00:00,
2013-08-16 18:00:00,66.0,59.7,30.08,North,0,0.0,0.0,80,0.01,,OVC,0.02,VWS V14.01,2013-08-16 22:00:00,
2013-08-16 19:00:00,65.3,60.0,30.08,North,0,0.0,0.0,83,0.00,,OVC,0.02,VWS V14.01,2013-08-16 23:00:00,
2013-08-16 20:00:00,63.2,59.3,30.11,North,0,0.0,0.0,87,0.00,,OVC,0.02,VWS V14.01,2013-08-17 00:00:00,
2013-08-16 21:00:00,62.0,59.7,30.12,North,0,0.0,0.0,92,0.00,,OVC,0.02,VWS V14.01,2013-08-17 01:00:00,
2013-08-16 22:00:00,61.1,59.1,30.15,North,0,0.0,0.0,93,0.00,,OVC,0.02,VWS V14.01,2013-08-17 02:00:00,
2013-08-16 23:00:00,60.3,58.0,30.15,North,0,0.0,0.0,92,0.00,,OVC,0.02,VWS V14.01,2013-08-17 03:00:00,